createdAt,value
2018-11-10T00:01:52.818Z,14.37
2018-11-10T00:04:21.081Z,11.73
2018-11-10T00:06:49.245Z,11.47
2018-11-10T00:09:17.431Z,11.83
2018-11-10T00:11:45.834Z,11.47
2018-11-10T00:14:14.021Z,10.97
2018-11-10T00:16:42.236Z,10.90
2018-11-10T00:19:10.414Z,11.50
2018-11-10T00:21:38.594Z,11.60
2018-11-10T00:24:06.882Z,9.80
2018-11-10T00:26:35.072Z,11.47
2018-11-10T00:29:03.278Z,10.40
2018-11-10T00:31:31.470Z,10.97
2018-11-10T00:33:59.665Z,9.50
2018-11-10T00:36:27.854Z,10.53
2018-11-10T00:38:56.042Z,10.27
2018-11-10T00:41:24.214Z,9.97
2018-11-10T00:43:52.427Z,10.37
2018-11-10T00:46:20.609Z,10.90
2018-11-10T00:48:48.833Z,11.03
2018-11-10T00:51:17.013Z,10.80
2018-11-10T00:53:45.210Z,12.63
2018-11-10T00:56:13.397Z,11.47
2018-11-10T00:58:41.650Z,12.33
2018-11-10T01:01:09.835Z,11.43
2018-11-10T01:03:38.026Z,10.70
2018-11-10T01:06:06.222Z,11.10
2018-11-10T01:08:34.413Z,12.07
2018-11-10T01:11:02.606Z,11.53
2018-11-10T01:13:30.802Z,12.07
2018-11-10T01:15:58.997Z,10.43
2018-11-10T01:18:27.186Z,11.37
2018-11-10T01:20:55.378Z,10.60
2018-11-10T01:23:23.569Z,9.80
2018-11-10T01:25:51.745Z,9.50
2018-11-10T01:28:19.929Z,9.77
2018-11-10T01:30:48.097Z,9.53
2018-11-10T01:33:16.306Z,10.13
2018-11-10T01:35:44.485Z,9.07
2018-11-10T01:38:12.686Z,8.80
2018-11-10T01:40:40.869Z,10.73
2018-11-10T01:43:09.058Z,9.57
2018-11-10T01:45:37.245Z,9.33
2018-11-10T01:48:05.641Z,10.03
2018-11-10T01:50:33.818Z,9.47
2018-11-10T01:53:02.020Z,8.87
2018-11-10T01:55:30.209Z,9.40
2018-11-10T01:57:58.386Z,9.23
2018-11-10T02:00:26.571Z,9.10
2018-11-10T02:02:54.758Z,8.80
2018-11-10T02:05:22.934Z,9.03
2018-11-10T02:07:51.138Z,9.90
2018-11-10T02:10:19.320Z,9.30
2018-11-10T02:12:47.514Z,9.00
2018-11-10T02:15:16.701Z,9.77
2018-11-10T02:17:44.936Z,9.17
2018-11-10T02:20:14.073Z,9.10
2018-11-10T02:22:42.374Z,10.00
2018-11-10T02:25:11.545Z,10.07
2018-11-10T02:27:40.128Z,8.80
2018-11-10T02:30:09.690Z,8.90
2018-11-10T02:32:37.890Z,9.83
2018-11-10T02:35:06.882Z,9.10
2018-11-10T02:37:35.126Z,8.37
2018-11-10T02:40:03.309Z,10.23
2018-11-10T02:42:31.504Z,9.30
2018-11-10T02:44:59.681Z,9.73
2018-11-10T02:47:27.856Z,9.33
2018-11-10T02:49:56.066Z,8.40
2018-11-10T02:52:24.241Z,8.60
2018-11-10T02:54:52.452Z,9.67
2018-11-10T02:57:20.628Z,8.23
2018-11-10T02:59:48.805Z,8.03
2018-11-10T03:02:16.990Z,8.30
2018-11-10T03:04:45.257Z,8.30
2018-11-10T03:07:13.435Z,7.73
2018-11-10T03:09:41.626Z,8.23
2018-11-10T03:12:09.802Z,8.50
2018-11-10T03:14:38.005Z,9.00
2018-11-10T03:17:06.201Z,8.07
2018-11-10T03:19:34.388Z,7.60
2018-11-10T03:22:02.570Z,8.40
2018-11-10T03:24:30.766Z,8.03
2018-11-10T03:26:58.954Z,7.67
2018-11-10T03:29:27.150Z,7.23
2018-11-10T03:31:55.342Z,7.57
2018-11-10T03:34:23.550Z,7.87
2018-11-10T03:36:51.727Z,7.90
2018-11-10T03:39:19.925Z,9.10
2018-11-10T03:41:48.115Z,8.87
2018-11-10T03:44:16.301Z,8.40
2018-11-10T03:46:44.482Z,8.83
2018-11-10T03:49:12.674Z,9.23
2018-11-10T03:51:40.864Z,9.13
2018-11-10T03:54:09.051Z,8.93
2018-11-10T03:56:37.241Z,8.40
2018-11-10T03:59:05.425Z,9.00
2018-11-10T04:01:33.605Z,8.47
2018-11-10T04:04:01.797Z,9.90
2018-11-10T04:06:29.981Z,8.90
2018-11-10T04:08:58.177Z,10.00
2018-11-10T04:11:26.705Z,10.50
2018-11-10T04:13:54.901Z,9.27
2018-11-10T04:16:23.094Z,9.73
2018-11-10T04:18:51.285Z,10.83
2018-11-10T04:21:19.534Z,10.43
2018-11-10T04:23:47.717Z,10.30
2018-11-10T04:26:15.903Z,10.10
2018-11-10T04:28:44.138Z,9.30
2018-11-10T04:31:12.307Z,10.07
2018-11-10T04:33:40.513Z,10.73
2018-11-10T04:36:08.706Z,12.30
2018-11-10T04:38:36.886Z,11.80
2018-11-10T04:41:05.518Z,11.23
2018-11-10T04:43:33.718Z,10.97
2018-11-10T04:46:01.907Z,12.43
2018-11-10T04:48:30.090Z,12.57
2018-11-10T04:50:58.281Z,13.20
2018-11-10T04:53:26.469Z,13.37
2018-11-10T04:55:54.657Z,13.10
2018-11-10T04:58:22.846Z,11.83
2018-11-10T05:00:51.027Z,10.63
2018-11-10T05:03:19.216Z,11.70
2018-11-10T05:05:47.401Z,12.63
2018-11-10T05:08:15.589Z,13.93
2018-11-10T05:10:43.793Z,14.30
2018-11-10T05:13:11.999Z,15.07
2018-11-10T05:15:40.190Z,13.87
2018-11-10T05:18:08.373Z,13.60
2018-11-10T05:20:36.581Z,16.90
2018-11-10T05:23:04.857Z,17.37
2018-11-10T05:25:33.057Z,16.77
2018-11-10T05:28:01.256Z,17.80
2018-11-10T05:30:29.446Z,20.43
2018-11-10T05:32:57.668Z,20.00
2018-11-10T05:35:25.874Z,17.87
2018-11-10T05:37:54.087Z,17.17
2018-11-10T05:40:22.300Z,17.17
2018-11-10T05:42:50.498Z,16.97
2018-11-10T05:45:18.702Z,19.17
2018-11-10T05:47:46.913Z,16.67
2018-11-10T05:50:15.105Z,19.03
2018-11-10T05:52:43.293Z,18.40
2018-11-10T05:55:11.497Z,19.53
2018-11-10T05:57:40.113Z,19.40
2018-11-10T06:00:10.249Z,19.90
2018-11-10T06:02:38.453Z,19.00
2018-11-10T06:05:06.703Z,17.57
2018-11-10T06:07:34.901Z,18.97
2018-11-10T06:10:03.289Z,19.87
2018-11-10T06:12:31.307Z,19.90
2018-11-10T06:14:59.509Z,18.30
2018-11-10T06:17:27.707Z,17.53
2018-11-10T06:19:55.927Z,17.97
2018-11-10T06:22:24.124Z,17.83
2018-11-10T06:24:52.334Z,17.43
2018-11-10T06:27:20.528Z,16.10
2018-11-10T06:29:48.733Z,16.00
2018-11-10T06:32:16.943Z,16.77
2018-11-10T06:34:45.156Z,16.17
2018-11-10T06:37:13.353Z,16.70
2018-11-10T06:39:41.563Z,17.40
2018-11-10T06:42:09.761Z,15.70
2018-11-10T06:44:37.977Z,16.37
2018-11-10T06:47:06.246Z,14.77
2018-11-10T06:49:34.402Z,17.23
2018-11-10T06:52:02.606Z,17.00
2018-11-10T06:54:30.804Z,16.33
2018-11-10T06:56:59.001Z,17.47
2018-11-10T06:59:27.218Z,15.83
2018-11-10T07:01:55.427Z,17.03
2018-11-10T07:04:23.641Z,15.67
2018-11-10T07:06:51.863Z,16.70
2018-11-10T07:09:20.160Z,16.73
2018-11-10T07:11:48.321Z,15.97
2018-11-10T07:14:16.519Z,16.43
2018-11-10T07:16:44.713Z,16.27
2018-11-10T07:19:13.008Z,16.47
2018-11-10T07:21:41.210Z,16.73
2018-11-10T07:24:09.434Z,16.37
2018-11-10T07:26:37.637Z,17.20
2018-11-10T07:29:05.837Z,18.57
2018-11-10T07:31:34.058Z,16.57
2018-11-10T07:34:02.451Z,17.50
2018-11-10T07:36:30.640Z,14.57
2018-11-10T07:38:58.864Z,13.77
2018-11-10T07:41:27.044Z,14.07
2018-11-10T07:43:55.267Z,15.70
2018-11-10T07:46:23.457Z,13.90
2018-11-10T07:48:51.650Z,13.37
2018-11-10T07:51:19.968Z,14.10
2018-11-10T07:53:48.056Z,13.93
2018-11-10T07:56:16.285Z,13.60
2018-11-10T07:58:44.542Z,14.70
2018-11-10T08:01:12.758Z,15.33
2018-11-10T08:03:40.966Z,18.00
2018-11-10T08:06:09.228Z,17.90
2018-11-10T08:08:37.445Z,16.43
2018-11-10T08:11:05.670Z,19.47
2018-11-10T08:13:33.887Z,17.23
2018-11-10T08:16:02.095Z,17.37
2018-11-10T08:18:30.309Z,16.43
2018-11-10T08:20:58.530Z,14.93
2018-11-10T08:23:26.738Z,16.00
2018-11-10T08:25:54.938Z,16.30
2018-11-10T08:28:23.189Z,16.10
2018-11-10T08:30:51.417Z,18.17
2018-11-10T08:33:19.614Z,18.83
2018-11-10T08:35:47.830Z,17.27
2018-11-10T08:38:16.021Z,19.23
2018-11-10T08:40:44.245Z,20.10
2018-11-10T08:43:12.518Z,20.10
2018-11-10T08:45:40.749Z,21.13
2018-11-10T08:48:08.966Z,20.30
2018-11-10T08:50:37.177Z,18.70
2018-11-10T08:53:05.393Z,21.50
2018-11-10T08:55:33.601Z,19.83
2018-11-10T08:58:01.802Z,20.53
2018-11-10T09:00:30.018Z,21.53
2018-11-10T09:02:58.212Z,21.80
2018-11-10T09:05:26.421Z,19.90
2018-11-10T09:07:54.609Z,20.50
2018-11-10T09:10:22.834Z,21.50
2018-11-10T09:12:51.038Z,21.93
2018-11-10T09:15:19.355Z,23.40
2018-11-10T09:17:47.473Z,22.10
2018-11-10T09:20:17.686Z,23.80
2018-11-10T09:22:45.979Z,22.50
2018-11-10T09:25:16.557Z,23.60
2018-11-10T09:27:44.752Z,21.37
2018-11-10T09:30:14.280Z,19.60
2018-11-10T09:32:42.870Z,21.23
2018-11-10T09:35:12.168Z,20.20
2018-11-10T09:37:40.400Z,21.20
2018-11-10T09:40:10.449Z,19.13
2018-11-10T09:42:38.778Z,22.70
2018-11-10T09:45:08.624Z,20.20
2018-11-10T09:47:37.228Z,21.53
2018-11-10T09:50:08.671Z,19.70
2018-11-10T09:52:36.877Z,19.50
2018-11-10T09:55:05.837Z,19.80
2018-11-10T09:57:34.158Z,19.80
2018-11-10T10:00:02.381Z,22.90
2018-11-10T10:02:30.992Z,20.83
2018-11-10T10:04:58.831Z,21.90
2018-11-10T10:07:27.122Z,23.57
2018-11-10T10:09:55.340Z,20.77
2018-11-10T10:12:23.882Z,22.37
2018-11-10T10:14:52.109Z,21.00
2018-11-10T10:17:20.312Z,20.03
2018-11-10T10:19:48.801Z,20.57
2018-11-10T10:22:17.072Z,18.90
2018-11-10T10:24:45.273Z,20.13
2018-11-10T10:27:13.489Z,20.37
2018-11-10T10:29:41.766Z,19.67
2018-11-10T10:32:09.965Z,21.27
2018-11-10T10:34:38.305Z,19.63
2018-11-10T10:37:06.417Z,21.73
2018-11-10T10:39:34.797Z,19.23
2018-11-10T10:42:03.042Z,21.17
2018-11-10T10:44:31.266Z,20.10
2018-11-10T10:46:59.485Z,19.80
2018-11-10T10:49:27.698Z,21.00
2018-11-10T10:51:55.924Z,19.27
2018-11-10T10:54:26.472Z,17.90
2018-11-10T10:56:55.098Z,17.30
2018-11-10T10:59:23.367Z,16.60
2018-11-10T11:01:57.040Z,17.33
2018-11-10T11:04:30.665Z,18.20
2018-11-10T11:06:58.891Z,18.17
2018-11-10T11:09:27.119Z,17.57
2018-11-10T11:11:55.307Z,18.40
2018-11-10T11:14:23.505Z,18.93
2018-11-10T11:16:51.720Z,19.97
2018-11-10T11:19:19.925Z,18.80
2018-11-10T11:21:48.186Z,18.20
2018-11-10T11:24:16.353Z,17.47
2018-11-10T11:26:45.439Z,18.50
2018-11-10T11:29:13.739Z,16.90
2018-11-10T11:31:41.869Z,16.00
2018-11-10T11:34:10.081Z,15.80
2018-11-10T11:36:38.312Z,14.43
2018-11-10T11:39:09.091Z,13.63
2018-11-10T11:41:37.355Z,12.60
2018-11-10T11:44:05.884Z,12.10
2018-11-10T11:46:34.171Z,12.07
2018-11-10T11:49:02.486Z,13.03
2018-11-10T11:51:30.709Z,11.40
2018-11-10T11:53:58.984Z,12.27
2018-11-10T11:56:28.586Z,13.83
2018-11-10T11:59:02.729Z,14.03
2018-11-10T12:01:32.034Z,13.27
2018-11-10T12:04:01.288Z,13.27
2018-11-10T12:06:29.577Z,12.43
2018-11-10T12:08:57.803Z,12.33
2018-11-10T12:11:26.066Z,11.80
2018-11-10T12:13:55.493Z,11.17
2018-11-10T12:16:27.199Z,11.57
2018-11-10T12:18:52.066Z,10.50
2018-11-10T12:21:20.590Z,10.80
2018-11-10T12:23:48.809Z,10.63
2018-11-10T12:26:16.997Z,9.67
2018-11-10T12:28:45.185Z,9.50
2018-11-10T12:31:13.402Z,9.17
2018-11-10T12:33:41.611Z,8.27
2018-11-10T12:36:09.813Z,9.37
2018-11-10T12:38:38.045Z,8.67
2018-11-10T12:41:06.202Z,7.70
2018-11-10T12:43:34.402Z,7.70
2018-11-10T12:46:02.593Z,7.70
2018-11-10T12:48:30.778Z,6.33
2018-11-10T12:50:58.982Z,7.00
2018-11-10T12:53:27.157Z,6.07
2018-11-10T12:55:55.481Z,6.03
2018-11-10T12:58:23.836Z,5.50
2018-11-10T13:00:52.027Z,5.77
2018-11-10T13:03:20.214Z,6.37
2018-11-10T13:05:48.397Z,4.80
2018-11-10T13:08:16.732Z,4.70
2018-11-10T13:10:44.774Z,4.47
2018-11-10T13:13:13.343Z,4.87
2018-11-10T13:15:41.521Z,4.50
2018-11-10T13:18:09.715Z,4.20
2018-11-10T13:20:37.906Z,4.43
2018-11-10T13:23:06.090Z,6.00
2018-11-10T13:25:34.265Z,6.93
2018-11-10T13:28:02.462Z,4.53
2018-11-10T13:30:30.647Z,7.23
2018-11-10T13:32:58.841Z,3.80
2018-11-10T13:35:27.022Z,2.90
2018-11-10T13:37:55.295Z,2.73
2018-11-10T13:40:23.413Z,2.53
2018-11-10T13:42:51.697Z,2.63
2018-11-10T13:45:19.882Z,2.73
2018-11-10T13:47:48.094Z,2.40
2018-11-10T13:50:16.293Z,2.53
2018-11-10T13:52:44.868Z,2.17
2018-11-10T13:55:13.348Z,2.30
2018-11-10T13:57:41.545Z,2.53
2018-11-10T14:00:12.305Z,2.40
2018-11-10T14:02:40.577Z,5.20
2018-11-10T14:05:08.791Z,5.30
2018-11-10T14:07:36.995Z,3.40
2018-11-10T14:10:06.596Z,2.90
2018-11-10T14:12:34.848Z,3.63
2018-11-10T14:15:02.985Z,4.50
2018-11-10T14:17:31.178Z,3.30
2018-11-10T14:19:59.382Z,3.30
2018-11-10T14:22:27.637Z,2.80
2018-11-10T14:24:55.838Z,3.10
2018-11-10T14:27:24.082Z,3.20
2018-11-10T14:29:52.261Z,3.23
2018-11-10T14:32:20.461Z,6.10
2018-11-10T14:34:48.646Z,12.07
2018-11-10T14:37:17.039Z,9.23
2018-11-10T14:39:45.256Z,2.90
2018-11-10T14:42:13.483Z,3.07
2018-11-10T14:44:41.655Z,2.97
2018-11-10T14:47:09.901Z,3.00
2018-11-10T14:49:38.093Z,3.47
2018-11-10T14:52:06.292Z,3.17
2018-11-10T14:54:34.473Z,3.70
2018-11-10T14:57:02.719Z,2.70
2018-11-10T14:59:30.953Z,3.70
2018-11-10T15:01:59.189Z,3.40
2018-11-10T15:04:27.373Z,3.20
2018-11-10T15:06:55.574Z,3.30
2018-11-10T15:09:23.765Z,3.67
2018-11-10T15:11:52.144Z,3.40
2018-11-10T15:14:20.479Z,2.77
2018-11-10T15:16:48.758Z,3.80
2018-11-10T15:19:17.063Z,3.57
2018-11-10T15:21:45.381Z,3.40
2018-11-10T15:24:13.681Z,3.10
2018-11-10T15:26:41.889Z,3.60
2018-11-10T15:29:10.078Z,3.90
2018-11-10T15:31:38.270Z,4.30
2018-11-10T15:34:06.750Z,4.10
2018-11-10T15:36:34.929Z,4.13
2018-11-10T15:39:03.218Z,4.97
2018-11-10T15:41:31.406Z,5.07
2018-11-10T15:43:59.609Z,6.50
2018-11-10T15:46:27.798Z,10.23
2018-11-10T15:48:56.010Z,10.60
2018-11-10T15:51:24.297Z,10.80
2018-11-10T15:53:52.497Z,5.50
2018-11-10T15:56:20.696Z,6.77
2018-11-10T15:58:48.889Z,6.63
2018-11-10T16:01:17.086Z,7.00
2018-11-10T16:03:45.310Z,6.20
2018-11-10T16:06:13.492Z,6.77
2018-11-10T16:08:41.682Z,6.50
2018-11-10T16:11:09.881Z,6.63
2018-11-10T16:13:38.086Z,6.10
2018-11-10T16:16:06.749Z,6.00
2018-11-10T16:18:34.950Z,5.10
2018-11-10T16:21:03.286Z,5.13
2018-11-10T16:23:31.413Z,6.10
2018-11-10T16:25:59.625Z,4.40
2018-11-10T16:28:27.872Z,5.10
2018-11-10T16:30:56.785Z,6.90
2018-11-10T16:33:25.005Z,5.80
2018-11-10T16:35:53.217Z,12.00
2018-11-10T16:38:21.566Z,10.23
2018-11-10T16:40:49.832Z,6.07
2018-11-10T16:43:18.034Z,4.57
2018-11-10T16:45:46.226Z,3.67
2018-11-10T16:48:14.417Z,3.60
2018-11-10T16:50:42.630Z,5.03
2018-11-10T16:53:10.858Z,4.90
2018-11-10T16:55:38.992Z,5.30
2018-11-10T16:58:07.190Z,4.90
2018-11-10T17:00:35.385Z,5.80
2018-11-10T17:03:03.582Z,6.03
2018-11-10T17:05:31.801Z,5.93
2018-11-10T17:07:59.995Z,4.93
2018-11-10T17:10:28.173Z,5.23
2018-11-10T17:12:56.416Z,5.43
2018-11-10T17:15:24.632Z,4.93
2018-11-10T17:17:52.785Z,4.97
2018-11-10T17:20:20.986Z,4.50
2018-11-10T17:22:49.169Z,4.00
2018-11-10T17:27:25.685Z,4.20
2018-11-10T17:29:53.879Z,4.40
2018-11-10T17:32:22.318Z,4.17
2018-11-10T17:34:50.516Z,4.23
2018-11-10T17:37:18.727Z,4.17
2018-11-10T17:39:47.033Z,3.87
2018-11-10T17:42:15.144Z,3.40
2018-11-10T17:44:43.410Z,5.00
2018-11-10T17:47:11.581Z,4.37
2018-11-10T17:49:39.785Z,4.30
2018-11-10T17:52:08.002Z,4.00
2018-11-10T17:54:36.172Z,5.00
2018-11-10T17:57:04.366Z,6.30
2018-11-10T17:59:32.585Z,6.50
2018-11-10T18:02:01.056Z,6.10
2018-11-10T18:04:29.180Z,7.00
2018-11-10T18:06:57.357Z,6.70
2018-11-10T18:09:25.547Z,6.57
2018-11-10T18:11:53.723Z,6.20
2018-11-10T18:14:21.937Z,6.30
2018-11-10T18:16:50.117Z,5.80
2018-11-10T18:19:18.336Z,6.27
2018-11-10T18:21:46.519Z,5.40
2018-11-10T18:24:14.720Z,5.40
2018-11-10T18:26:42.904Z,8.40
2018-11-10T18:29:11.091Z,6.60
2018-11-10T18:31:39.257Z,7.17
2018-11-10T18:34:07.461Z,7.87
2018-11-10T18:36:35.891Z,7.30
2018-11-10T18:39:05.577Z,8.20
2018-11-10T18:41:33.753Z,7.07
2018-11-10T18:44:01.938Z,7.13
2018-11-10T18:46:30.179Z,7.30
2018-11-10T18:48:58.325Z,8.60
2018-11-10T18:51:26.523Z,8.37
2018-11-10T18:53:54.714Z,10.40
2018-11-10T18:56:22.906Z,9.63
2018-11-10T18:58:51.136Z,10.10
2018-11-10T19:01:19.327Z,10.60
2018-11-10T19:03:47.568Z,11.23
2018-11-10T19:06:15.869Z,12.13
2018-11-10T19:08:43.959Z,11.83
2018-11-10T19:11:12.138Z,9.53
2018-11-10T19:13:40.340Z,11.40
2018-11-10T19:16:08.520Z,11.13
2018-11-10T19:18:36.715Z,9.47
2018-11-10T19:21:05.423Z,11.10
2018-11-10T19:23:33.565Z,10.73
2018-11-10T19:26:01.764Z,10.43
2018-11-10T19:28:29.955Z,12.43
2018-11-10T19:30:58.139Z,10.80
2018-11-10T19:33:26.358Z,11.17
2018-11-10T19:35:54.570Z,11.00
2018-11-10T19:38:22.779Z,12.67
2018-11-10T19:40:50.976Z,11.70
2018-11-10T19:43:19.200Z,10.20
2018-11-10T19:45:47.377Z,9.20
2018-11-10T19:48:15.581Z,10.80
2018-11-10T19:50:43.955Z,11.10
2018-11-10T19:53:12.021Z,11.20
2018-11-10T19:55:40.261Z,11.13
2018-11-10T19:58:08.449Z,11.20
2018-11-10T20:00:36.678Z,10.20
2018-11-10T20:03:05.138Z,10.90
2018-11-10T20:05:33.341Z,10.93
2018-11-10T20:08:01.614Z,10.87
2018-11-10T20:10:29.821Z,12.00
2018-11-10T20:12:58.072Z,12.10
2018-11-10T20:15:26.245Z,14.03
2018-11-10T20:17:54.446Z,10.73
2018-11-10T20:20:22.657Z,10.93
2018-11-10T20:22:50.863Z,11.17
2018-11-10T20:25:19.572Z,9.60
2018-11-10T20:27:47.770Z,12.07
2018-11-10T20:30:17.262Z,9.20
2018-11-10T20:32:45.776Z,8.03
2018-11-10T20:35:14.314Z,8.30
2018-11-10T20:37:43.189Z,7.57
2018-11-10T20:40:12.731Z,7.50
2018-11-10T20:42:41.185Z,7.70
2018-11-10T20:45:11.805Z,7.03
2018-11-10T20:47:40.503Z,6.70
2018-11-10T20:50:08.725Z,7.60
2018-11-10T20:52:37.658Z,7.10
2018-11-10T20:55:07.778Z,6.80
2018-11-10T20:57:36.667Z,7.43
2018-11-10T21:00:07.957Z,5.87
2018-11-10T21:02:36.117Z,5.50
2018-11-10T21:05:04.913Z,6.57
2018-11-10T21:07:33.089Z,6.13
2018-11-10T21:10:01.292Z,5.00
2018-11-10T21:12:29.465Z,5.20
2018-11-10T21:14:57.661Z,4.80
2018-11-10T21:17:25.841Z,5.10
2018-11-10T21:19:54.051Z,4.90
2018-11-10T21:22:22.230Z,5.20
2018-11-10T21:24:50.416Z,4.37
2018-11-10T21:27:18.602Z,4.23
2018-11-10T21:29:46.905Z,4.70
2018-11-10T21:32:14.968Z,3.90
2018-11-10T21:34:43.243Z,3.60
2018-11-10T21:37:11.421Z,4.23
2018-11-10T21:39:39.622Z,4.17
2018-11-10T21:42:07.801Z,4.10
2018-11-10T21:44:35.993Z,5.40
2018-11-10T21:47:04.218Z,4.53
2018-11-10T21:49:32.462Z,4.83
2018-11-10T21:52:00.592Z,4.17
2018-11-10T21:54:28.782Z,4.67
2018-11-10T21:56:56.966Z,4.40
2018-11-10T21:59:25.145Z,4.00
2018-11-10T22:01:53.332Z,4.20
2018-11-10T22:04:21.537Z,4.23
2018-11-10T22:06:49.711Z,3.83
2018-11-10T22:09:18.064Z,4.60
2018-11-10T22:11:46.089Z,4.07
2018-11-10T22:14:14.297Z,4.50
2018-11-10T22:16:42.462Z,3.70
2018-11-10T22:19:10.652Z,4.00
2018-11-10T22:21:38.841Z,4.30
2018-11-10T22:24:07.226Z,3.70
2018-11-10T22:26:35.413Z,4.67
2018-11-10T22:29:03.610Z,4.20
2018-11-10T22:31:31.802Z,4.17
2018-11-10T22:34:00.009Z,4.00
2018-11-10T22:36:28.190Z,4.03
2018-11-10T22:38:56.365Z,3.30
2018-11-10T22:41:24.563Z,4.10
2018-11-10T22:43:52.750Z,4.90
2018-11-10T22:46:20.942Z,3.90
2018-11-10T22:48:49.188Z,3.70
2018-11-10T22:51:17.709Z,4.23
2018-11-10T22:53:45.921Z,3.80
2018-11-10T22:56:14.287Z,3.30
2018-11-10T22:58:42.493Z,3.23
2018-11-10T23:01:12.345Z,3.97
2018-11-10T23:03:40.948Z,4.20
2018-11-10T23:06:10.497Z,4.33
2018-11-10T23:08:38.857Z,4.23
2018-11-10T23:11:07.058Z,4.87
2018-11-10T23:13:35.458Z,4.97
2018-11-10T23:16:03.687Z,4.40
2018-11-10T23:18:31.912Z,4.80
2018-11-10T23:21:00.122Z,4.40
2018-11-10T23:23:28.426Z,3.77
2018-11-10T23:25:56.585Z,3.80
2018-11-10T23:28:24.802Z,3.43
2018-11-10T23:30:53.032Z,3.53
2018-11-10T23:33:21.238Z,3.97
2018-11-10T23:35:49.481Z,4.40
2018-11-10T23:38:17.829Z,4.67
2018-11-10T23:40:46.083Z,4.03
2018-11-10T23:43:14.327Z,4.50
2018-11-10T23:45:42.632Z,3.90
2018-11-10T23:48:10.861Z,3.50
2018-11-10T23:50:39.097Z,3.10
2018-11-10T23:53:07.318Z,2.93
2018-11-10T23:55:35.535Z,5.33
2018-11-10T23:58:03.796Z,2.77
